createdAt,value
2022-11-24T00:01:18.595Z,3.898621
2022-11-24T00:04:43.811Z,3.878479
2022-11-24T00:08:09.039Z,3.838196
2022-11-24T00:11:34.281Z,3.838196
2022-11-24T00:14:59.475Z,3.878479
2022-11-24T00:18:24.684Z,3.898621
2022-11-24T00:21:49.906Z,3.858337
2022-11-24T00:25:15.113Z,3.928833
2022-11-24T00:28:40.340Z,3.969116
2022-11-24T00:32:05.523Z,4.01947
2022-11-24T00:35:30.730Z,3.979187
2022-11-24T00:38:55.960Z,3.868408
2022-11-24T00:42:21.165Z,3.898621
2022-11-24T00:45:46.496Z,3.878479
2022-11-24T00:49:11.597Z,3.908691
2022-11-24T00:52:36.844Z,3.858337
2022-11-24T00:56:02.048Z,3.868408
2022-11-24T00:59:27.289Z,3.838196
2022-11-24T01:02:52.575Z,3.908691
2022-11-24T01:06:17.734Z,3.928833
2022-11-24T01:09:42.942Z,3.969116
2022-11-24T01:13:08.158Z,3.959045
2022-11-24T01:16:33.382Z,3.959045
2022-11-24T01:19:58.628Z,3.959045
2022-11-24T01:23:23.818Z,3.868408
2022-11-24T01:26:49.020Z,3.838196
2022-11-24T01:30:14.230Z,3.868408
2022-11-24T01:33:39.440Z,3.938904
2022-11-24T01:37:04.684Z,3.959045
2022-11-24T01:40:29.883Z,4.01947
2022-11-24T01:43:55.084Z,3.999329
2022-11-24T01:47:20.295Z,4.150391
2022-11-24T01:50:45.516Z,4.089966
2022-11-24T01:54:10.760Z,4.160461
2022-11-24T01:57:35.949Z,4.200745
2022-11-24T02:01:01.215Z,4.230957
2022-11-24T02:04:26.391Z,4.220886
2022-11-24T02:07:51.685Z,4.291382
2022-11-24T02:11:16.833Z,4.331665
2022-11-24T02:14:42.011Z,4.301453
2022-11-24T02:18:07.217Z,4.261169
2022-11-24T02:21:32.416Z,4.331665
2022-11-24T02:24:57.650Z,4.230957
2022-11-24T02:28:22.895Z,4.261169
2022-11-24T02:31:48.068Z,4.291382
2022-11-24T02:35:13.286Z,4.241028
2022-11-24T02:38:38.486Z,4.241028
2022-11-24T02:42:03.702Z,4.331665
2022-11-24T02:45:28.922Z,4.402161
2022-11-24T02:48:54.132Z,4.301453
2022-11-24T02:52:19.362Z,4.27124
2022-11-24T02:55:44.549Z,4.180603
2022-11-24T02:59:09.747Z,4.230957
2022-11-24T03:02:35.070Z,4.160461
2022-11-24T03:06:00.154Z,4.230957
2022-11-24T03:09:25.358Z,4.200745
2022-11-24T03:12:50.556Z,4.230957
2022-11-24T03:16:15.777Z,4.27124
2022-11-24T03:19:41.005Z,4.321594
2022-11-24T03:23:06.205Z,4.341736
2022-11-24T03:26:31.409Z,4.371948
2022-11-24T03:29:56.621Z,4.261169
2022-11-24T03:33:21.818Z,4.27124
2022-11-24T03:36:47.046Z,4.241028
2022-11-24T03:40:12.245Z,4.241028
2022-11-24T03:43:42.063Z,4.230957
2022-11-24T03:47:02.671Z,4.261169
2022-11-24T03:50:27.878Z,4.301453
2022-11-24T03:53:53.119Z,4.341736
2022-11-24T03:57:18.309Z,4.331665
2022-11-24T04:00:43.507Z,4.331665
2022-11-24T04:04:08.723Z,4.361877
2022-11-24T04:07:33.952Z,4.341736
2022-11-24T04:10:59.154Z,4.331665
2022-11-24T04:14:24.429Z,4.371948
2022-11-24T04:17:49.550Z,4.452515
2022-11-24T04:21:14.750Z,4.543152
2022-11-24T04:24:39.989Z,4.694214
2022-11-24T04:28:05.223Z,4.734497
2022-11-24T04:31:30.436Z,4.815063
2022-11-24T04:34:55.605Z,4.885559
2022-11-24T04:39:20.279Z,4.935913
2022-11-24T04:41:46.012Z,4.956055
2022-11-24T04:45:11.270Z,4.956055
2022-11-24T04:48:36.456Z,4.915771
2022-11-24T04:52:01.671Z,4.885559
2022-11-24T04:55:26.878Z,4.845276
2022-11-24T04:58:52.110Z,4.804993
2022-11-24T05:02:17.333Z,4.77478
2022-11-24T05:05:42.517Z,4.77478
2022-11-24T05:09:07.815Z,4.784851
2022-11-24T05:12:33.045Z,4.77478
2022-11-24T05:15:58.298Z,4.784851
2022-11-24T05:19:25.374Z,4.804993
2022-11-24T05:22:48.756Z,4.804993
2022-11-24T05:26:13.949Z,4.815063
2022-11-24T05:29:39.152Z,4.905701
2022-11-24T05:33:04.382Z,4.996338
2022-11-24T05:36:29.599Z,5.056763
2022-11-24T05:39:54.809Z,5.117188
2022-11-24T05:43:19.981Z,5.127258
2022-11-24T05:46:45.270Z,5.117188
2022-11-24T05:50:10.374Z,5.1474
2022-11-24T05:53:35.609Z,5.207825
2022-11-24T05:57:00.784Z,5.177612
2022-11-24T06:00:25.978Z,5.1474
2022-11-24T06:03:51.186Z,5.127258
2022-11-24T06:07:16.449Z,5.197754
2022-11-24T06:10:41.651Z,5.26825
2022-11-24T06:14:10.841Z,5.379028
2022-11-24T06:17:32.023Z,5.348816
2022-11-24T06:21:10.066Z,5.358887
2022-11-24T06:24:22.408Z,5.389099
2022-11-24T06:27:47.645Z,5.358887
2022-11-24T06:31:12.903Z,5.389099
2022-11-24T06:34:38.035Z,5.429382
2022-11-24T06:38:03.248Z,5.429382
2022-11-24T06:41:28.437Z,5.429382
2022-11-24T06:44:53.671Z,5.560303
2022-11-24T06:48:18.894Z,5.741577
2022-11-24T06:51:44.088Z,5.751648
2022-11-24T06:55:09.315Z,5.711365
2022-11-24T06:58:34.535Z,5.721436
2022-11-24T07:01:59.783Z,5.721436
2022-11-24T07:05:24.947Z,5.721436
2022-11-24T07:08:50.165Z,5.721436
2022-11-24T07:12:15.366Z,5.681152
2022-11-24T07:15:40.567Z,5.721436
2022-11-24T07:19:05.805Z,5.751648
2022-11-24T07:22:30.981Z,5.761719
2022-11-24T07:25:56.175Z,5.761719
2022-11-24T07:29:21.380Z,5.791931
2022-11-24T07:32:46.581Z,5.761719
2022-11-24T07:36:11.813Z,5.822144
2022-11-24T07:39:36.997Z,5.912781
2022-11-24T07:43:02.207Z,5.963135
2022-11-24T07:46:27.462Z,6.013489
2022-11-24T07:49:52.632Z,6.063843
2022-11-24T07:53:17.877Z,6.043701
2022-11-24T07:56:43.050Z,6.083984
2022-11-24T08:00:08.269Z,6.094055
2022-11-24T08:03:33.521Z,6.043701
2022-11-24T08:06:58.676Z,6.03363
2022-11-24T08:10:23.905Z,6.144409
2022-11-24T08:13:49.092Z,6.224976
2022-11-24T08:17:14.291Z,6.245117
2022-11-24T08:20:39.480Z,6.305542
2022-11-24T08:24:04.889Z,6.40625
2022-11-24T08:27:30.120Z,6.436462
2022-11-24T08:30:55.292Z,6.506958
2022-11-24T08:34:20.487Z,6.517029
2022-11-24T08:37:46.071Z,6.617737
2022-11-24T08:41:11.716Z,6.698303
2022-11-24T08:44:37.164Z,6.708374
2022-11-24T08:48:02.118Z,6.617737
2022-11-24T08:51:27.338Z,6.708374
2022-11-24T08:54:52.538Z,6.728516
2022-11-24T08:58:17.747Z,6.839294
2022-11-24T09:01:43.060Z,6.90979
2022-11-24T09:05:22.640Z,6.919861
2022-11-24T09:08:33.343Z,7.020569
2022-11-24T09:11:58.535Z,7.171631
2022-11-24T09:15:23.766Z,7.211914
2022-11-24T09:18:49.007Z,7.232056
2022-11-24T09:22:14.206Z,7.302551
2022-11-24T09:25:39.422Z,7.232056
2022-11-24T09:29:04.646Z,7.242126
2022-11-24T09:32:29.845Z,7.232056
2022-11-24T09:35:55.078Z,7.28241
2022-11-24T09:39:20.261Z,7.252197
2022-11-24T09:42:49.391Z,7.28241
2022-11-24T09:46:10.700Z,7.373047
2022-11-24T09:49:36.094Z,7.312622
2022-11-24T09:53:01.140Z,7.373047
2022-11-24T09:56:26.323Z,7.373047
2022-11-24T09:59:51.530Z,7.393188
2022-11-24T10:03:16.741Z,7.342834
2022-11-24T10:06:41.938Z,7.352905
2022-11-24T10:10:07.181Z,7.352905
2022-11-24T10:13:32.362Z,7.272339
2022-11-24T10:16:57.571Z,7.16156
2022-11-24T10:20:22.779Z,7.101135
2022-11-24T10:23:47.987Z,7.121277
2022-11-24T10:27:13.250Z,7.151489
2022-11-24T10:30:38.497Z,7.201843
2022-11-24T10:34:03.649Z,7.232056
2022-11-24T10:37:28.855Z,7.242126
2022-11-24T10:40:58.148Z,7.342834
2022-11-24T10:44:19.362Z,7.322693
2022-11-24T10:47:44.557Z,7.302551
2022-11-24T10:51:09.771Z,7.322693
2022-11-24T10:54:34.997Z,7.352905
2022-11-24T10:58:00.220Z,7.302551
2022-11-24T11:01:25.604Z,7.322693
2022-11-24T11:04:50.730Z,7.322693
2022-11-24T11:08:15.961Z,7.352905
2022-11-24T11:11:41.178Z,7.373047
2022-11-24T11:15:06.390Z,7.373047
2022-11-24T11:18:31.623Z,7.373047
2022-11-24T11:21:56.800Z,7.393188
2022-11-24T11:25:22.128Z,7.423401
2022-11-24T11:28:47.355Z,7.463684
2022-11-24T11:35:38.379Z,7.524109
2022-11-24T11:39:03.563Z,7.503967
2022-11-24T11:45:55.425Z,7.453613
2022-11-24T11:49:20.528Z,7.503967
2022-11-24T11:52:45.770Z,7.493896
2022-11-24T11:56:10.968Z,7.524109
2022-11-24T11:59:36.343Z,7.574463
2022-11-24T12:03:01.616Z,7.604675
2022-11-24T12:06:26.741Z,7.644958
2022-11-24T12:09:51.978Z,7.675171
2022-11-24T12:13:17.148Z,7.705383
2022-11-24T12:16:42.350Z,7.735596
2022-11-24T12:20:07.580Z,7.745667
2022-11-24T12:23:32.783Z,7.796021
2022-11-24T12:26:58.011Z,7.796021
2022-11-24T12:30:23.190Z,7.796021
2022-11-24T12:33:51.662Z,7.765808
2022-11-24T12:37:13.623Z,7.796021
2022-11-24T12:40:42.135Z,7.816162
2022-11-24T12:44:04.062Z,7.856445
2022-11-24T12:47:29.245Z,7.826233
2022-11-24T12:50:54.508Z,7.866516
2022-11-24T12:54:19.973Z,7.926941
2022-11-24T12:57:45.190Z,7.997437
2022-11-24T13:01:16.080Z,8.067932
2022-11-24T13:04:35.906Z,8.098145
2022-11-24T13:08:00.805Z,8.098145
2022-11-24T13:11:26.004Z,8.047791
2022-11-24T13:14:51.209Z,8.007507
2022-11-24T13:18:16.522Z,8.03772
2022-11-24T13:21:41.650Z,8.007507
2022-11-24T13:25:06.861Z,8.017578
2022-11-24T13:28:54.337Z,8.017578
2022-11-24T13:31:57.265Z,7.967224
2022-11-24T13:35:22.493Z,7.91687
2022-11-24T13:38:47.684Z,7.866516
2022-11-24T13:42:41.335Z,7.866516
2022-11-24T13:45:38.649Z,7.856445
2022-11-24T13:49:04.306Z,7.826233
2022-11-24T13:52:29.541Z,7.796021
2022-11-24T13:55:54.715Z,7.816162
2022-11-24T13:59:19.974Z,7.816162
2022-11-24T14:02:45.293Z,7.735596
2022-11-24T14:06:10.485Z,7.634888
2022-11-24T14:09:35.768Z,7.584534
2022-11-24T14:13:01.009Z,7.53418
2022-11-24T14:16:26.320Z,7.483826
2022-11-24T14:19:51.501Z,7.463684
2022-11-24T14:23:16.889Z,7.342834
2022-11-24T14:26:42.160Z,7.28241
2022-11-24T14:30:07.476Z,7.211914
2022-11-24T15:05:49.067Z,7.101135
2022-11-24T15:09:14.316Z,7.091064
2022-11-24T15:12:39.601Z,7.101135
2022-11-24T15:16:04.861Z,7.121277
2022-11-24T15:19:30.037Z,7.131348
2022-11-24T15:22:55.349Z,7.151489
2022-11-24T15:26:20.611Z,7.171631
2022-11-24T15:29:45.900Z,7.232056
2022-11-24T15:33:11.116Z,7.252197
2022-11-24T15:36:36.354Z,7.242126
2022-11-24T15:40:01.714Z,7.232056
2022-11-24T15:43:26.832Z,7.16156
2022-11-24T15:46:52.131Z,7.201843
2022-11-24T15:50:17.297Z,7.16156
2022-11-24T15:53:43.321Z,7.101135
2022-11-24T15:57:08.565Z,6.970215
2022-11-24T16:00:33.791Z,6.919861
2022-11-24T16:03:58.953Z,6.889648
2022-11-24T16:07:24.251Z,6.970215
2022-11-24T16:10:49.438Z,6.990356
2022-11-24T16:14:14.867Z,7.070923
2022-11-24T16:17:39.904Z,7.232056
2022-11-24T16:21:05.078Z,7.272339
2022-11-24T16:24:30.295Z,7.302551
2022-11-24T16:27:55.557Z,7.252197
2022-11-24T16:31:20.909Z,7.16156
2022-11-24T16:34:46.038Z,7.091064
2022-11-24T16:38:11.310Z,6.879578
2022-11-24T16:41:36.552Z,6.708374
2022-11-24T16:45:01.753Z,6.637878
2022-11-24T16:48:27.026Z,6.577454
2022-11-24T16:51:52.283Z,6.547241
2022-11-24T16:55:17.509Z,6.587524
2022-11-24T16:58:42.727Z,6.557312
2022-11-24T17:02:07.992Z,6.607666
2022-11-24T17:05:33.195Z,6.53717
2022-11-24T17:08:58.436Z,6.517029
2022-11-24T17:12:23.637Z,6.587524
2022-11-24T17:15:53.902Z,6.607666
2022-11-24T17:19:14.255Z,6.668091
2022-11-24T17:22:39.705Z,6.668091
2022-11-24T17:26:04.896Z,6.587524
2022-11-24T17:29:30.135Z,6.577454
2022-11-24T17:32:57.022Z,6.557312
2022-11-24T17:36:20.519Z,6.587524
2022-11-24T17:39:59.910Z,6.607666
2022-11-24T17:43:10.987Z,6.688232
2022-11-24T17:46:36.229Z,6.637878
2022-11-24T17:50:01.497Z,6.65802
2022-11-24T17:53:26.725Z,6.65802
2022-11-24T17:56:51.955Z,6.688232
2022-11-24T18:00:17.223Z,6.758728
2022-11-24T18:03:42.498Z,6.799011
2022-11-24T18:07:07.867Z,6.869507
2022-11-24T18:10:33.039Z,6.78894
2022-11-24T18:14:00.893Z,6.738586
2022-11-24T18:17:23.506Z,6.738586
2022-11-24T18:20:48.773Z,6.768799
2022-11-24T18:24:14.070Z,6.879578
2022-11-24T18:27:39.333Z,6.90979
2022-11-24T18:31:04.639Z,6.849365
2022-11-24T18:34:29.883Z,6.728516
2022-11-24T18:37:55.184Z,6.738586
2022-11-24T18:41:20.454Z,6.758728
2022-11-24T18:44:48.637Z,6.738586
2022-11-24T18:48:11.014Z,6.708374
2022-11-24T18:51:36.225Z,6.728516
2022-11-24T18:55:01.455Z,6.758728
2022-11-24T18:58:26.737Z,6.78894
2022-11-24T19:01:52.060Z,6.78894
2022-11-24T19:05:17.238Z,6.78894
2022-11-24T19:08:42.467Z,6.849365
2022-11-24T19:12:09.220Z,6.879578
2022-11-24T19:15:32.926Z,6.879578
2022-11-24T19:18:58.154Z,6.950073
2022-11-24T19:22:23.441Z,6.889648
2022-11-24T19:25:48.656Z,6.879578
2022-11-24T19:29:13.990Z,6.90979
2022-11-24T19:32:39.153Z,6.940002
2022-11-24T19:36:04.399Z,6.940002
2022-11-24T19:39:29.704Z,6.940002
2022-11-24T19:42:54.938Z,6.849365
2022-11-24T19:46:20.243Z,6.879578
2022-11-24T19:49:45.447Z,6.839294
2022-11-24T19:53:10.691Z,6.758728
2022-11-24T19:56:35.966Z,6.698303
2022-11-24T20:00:01.177Z,6.738586
2022-11-24T20:03:26.419Z,6.768799
2022-11-24T20:06:51.675Z,6.869507
2022-11-24T20:10:16.927Z,6.940002
2022-11-24T20:13:42.203Z,6.950073
2022-11-24T20:17:07.503Z,6.980286
2022-11-24T20:20:32.766Z,6.940002
2022-11-24T20:23:57.999Z,6.950073
2022-11-24T20:27:23.336Z,6.980286
2022-11-24T20:30:48.605Z,6.980286
2022-11-24T20:34:13.845Z,6.950073
2022-11-24T20:37:39.158Z,6.940002
2022-11-24T20:41:08.700Z,6.90979
2022-11-24T20:44:29.687Z,6.889648
2022-11-24T20:47:54.951Z,6.90979
2022-11-24T20:51:20.168Z,6.839294
2022-11-24T20:54:45.400Z,6.869507
2022-11-24T20:58:10.714Z,6.849365
2022-11-24T21:01:35.977Z,6.78894
2022-11-24T21:05:01.197Z,6.799011
2022-11-24T21:08:26.376Z,6.90979
2022-11-24T21:11:51.581Z,6.950073
2022-11-24T21:15:16.786Z,6.970215
2022-11-24T21:18:41.992Z,6.970215
2022-11-24T21:22:07.327Z,6.980286
2022-11-24T21:25:32.398Z,6.980286
2022-11-24T21:28:57.636Z,6.90979
2022-11-24T21:32:22.874Z,6.940002
2022-11-24T21:35:48.131Z,6.950073
2022-11-24T21:39:13.407Z,6.90979
2022-11-24T21:42:38.564Z,6.90979
2022-11-24T21:46:03.919Z,6.940002
2022-11-24T21:49:29.003Z,6.919861
2022-11-24T21:52:54.580Z,6.849365
2022-11-24T21:56:19.448Z,6.758728
2022-11-24T21:59:44.630Z,6.637878
2022-11-24T22:03:09.855Z,6.65802
2022-11-24T22:06:35.090Z,6.617737
2022-11-24T22:10:00.322Z,6.557312
2022-11-24T22:13:25.581Z,6.426392
2022-11-24T22:16:50.824Z,6.305542
2022-11-24T22:20:16.022Z,6.114197
2022-11-24T22:23:41.229Z,5.993347
2022-11-24T22:27:06.426Z,5.852356
2022-11-24T22:30:31.642Z,5.832214
2022-11-24T22:33:56.834Z,5.822144
2022-11-24T22:37:22.050Z,5.832214
2022-11-24T22:40:47.251Z,5.852356
2022-11-24T22:44:12.456Z,5.822144
2022-11-24T22:47:37.697Z,5.761719
2022-11-24T22:51:02.941Z,5.671082
2022-11-24T22:54:28.127Z,5.509949
2022-11-24T22:57:56.799Z,5.53009
2022-11-24T23:01:18.563Z,5.479736
2022-11-24T23:04:43.766Z,5.419312
2022-11-24T23:08:09.001Z,5.298462
2022-11-24T23:11:37.630Z,5.177612
2022-11-24T23:14:59.458Z,5.097046
2022-11-24T23:18:24.712Z,5.1474
2022-11-24T23:21:50.024Z,5.177612
2022-11-24T23:25:15.264Z,5.167542
2022-11-24T23:28:40.473Z,5.197754
2022-11-24T23:32:05.749Z,5.217896
2022-11-24T23:35:30.932Z,5.207825
2022-11-24T23:38:56.160Z,5.238037
2022-11-24T23:42:21.346Z,5.328674
2022-11-24T23:45:46.701Z,5.379028
2022-11-24T23:49:11.862Z,5.449524
2022-11-24T23:52:37.079Z,5.489807
2022-11-24T23:56:02.292Z,5.489807
2022-11-24T23:59:27.466Z,5.540161
